sensor_id;sensor_type;location;lat;lon;timestamp;P1;durP1;ratioP1;P2;durP2;ratioP2
55758;SDS011;41678;52.126;20.664;2022-11-14T00:02:45;24.98;;;10.05;;
55758;SDS011;41678;52.126;20.664;2022-11-14T00:08:24;22.70;;;9.32;;
55758;SDS011;41678;52.126;20.664;2022-11-14T00:14:03;24.83;;;9.25;;
55758;SDS011;41678;52.126;20.664;2022-11-14T00:19:41;21.15;;;9.73;;
55758;SDS011;41678;52.126;20.664;2022-11-14T00:25:19;22.05;;;9.38;;
55758;SDS011;41678;52.126;20.664;2022-11-14T00:30:58;16.55;;;8.32;;
55758;SDS011;41678;52.126;20.664;2022-11-14T00:36:36;21.17;;;9.05;;
55758;SDS011;41678;52.126;20.664;2022-11-14T00:42:14;21.33;;;9.02;;
55758;SDS011;41678;52.126;20.664;2022-11-14T00:47:52;18.75;;;9.02;;
55758;SDS011;41678;52.126;20.664;2022-11-14T00:53:31;21.70;;;9.27;;
55758;SDS011;41678;52.126;20.664;2022-11-14T00:59:10;19.25;;;9.45;;
55758;SDS011;41678;52.126;20.664;2022-11-14T01:04:48;20.92;;;8.63;;
55758;SDS011;41678;52.126;20.664;2022-11-14T01:10:26;22.75;;;9.63;;
55758;SDS011;41678;52.126;20.664;2022-11-14T01:16:05;23.92;;;9.23;;
55758;SDS011;41678;52.126;20.664;2022-11-14T01:21:44;18.25;;;8.40;;
55758;SDS011;41678;52.126;20.664;2022-11-14T01:27:22;14.40;;;6.82;;
55758;SDS011;41678;52.126;20.664;2022-11-14T01:33:01;16.40;;;7.38;;
55758;SDS011;41678;52.126;20.664;2022-11-14T01:38:40;15.07;;;6.95;;
55758;SDS011;41678;52.126;20.664;2022-11-14T01:50:27;16.40;;;6.80;;
55758;SDS011;41678;52.126;20.664;2022-11-14T01:56:05;12.38;;;5.47;;
55758;SDS011;41678;52.126;20.664;2022-11-14T02:01:50;13.13;;;4.95;;
55758;SDS011;41678;52.126;20.664;2022-11-14T02:07:31;11.80;;;4.13;;
55758;SDS011;41678;52.126;20.664;2022-11-14T02:13:11;19.33;;;4.93;;
55758;SDS011;41678;52.126;20.664;2022-11-14T02:18:50;14.68;;;4.55;;
55758;SDS011;41678;52.126;20.664;2022-11-14T02:24:29;10.15;;;4.03;;
55758;SDS011;41678;52.126;20.664;2022-11-14T02:30:09;10.88;;;3.45;;
55758;SDS011;41678;52.126;20.664;2022-11-14T02:35:49;11.50;;;4.38;;
55758;SDS011;41678;52.126;20.664;2022-11-14T02:41:28;10.60;;;3.28;;
55758;SDS011;41678;52.126;20.664;2022-11-14T02:47:07;8.63;;;3.30;;
55758;SDS011;41678;52.126;20.664;2022-11-14T02:52:45;11.95;;;3.38;;
55758;SDS011;41678;52.126;20.664;2022-11-14T02:58:23;8.75;;;3.22;;
55758;SDS011;41678;52.126;20.664;2022-11-14T03:04:02;8.20;;;3.33;;
55758;SDS011;41678;52.126;20.664;2022-11-14T03:09:40;9.82;;;3.13;;
55758;SDS011;41678;52.126;20.664;2022-11-14T03:15:18;9.60;;;3.58;;
55758;SDS011;41678;52.126;20.664;2022-11-14T03:21:03;8.35;;;3.28;;
55758;SDS011;41678;52.126;20.664;2022-11-14T03:26:52;8.20;;;3.10;;
55758;SDS011;41678;52.126;20.664;2022-11-14T03:32:31;10.05;;;3.17;;
55758;SDS011;41678;52.126;20.664;2022-11-14T03:38:09;8.88;;;2.90;;
55758;SDS011;41678;52.126;20.664;2022-11-14T03:43:47;8.85;;;3.30;;
55758;SDS011;41678;52.126;20.664;2022-11-14T03:49:26;8.50;;;2.80;;
55758;SDS011;41678;52.126;20.664;2022-11-14T03:55:04;7.97;;;3.40;;
55758;SDS011;41678;52.126;20.664;2022-11-14T04:00:43;9.25;;;3.58;;
55758;SDS011;41678;52.126;20.664;2022-11-14T04:06:21;7.95;;;2.92;;
55758;SDS011;41678;52.126;20.664;2022-11-14T04:12:00;6.93;;;2.85;;
55758;SDS011;41678;52.126;20.664;2022-11-14T04:17:38;7.05;;;3.10;;
55758;SDS011;41678;52.126;20.664;2022-11-14T04:23:17;11.07;;;3.58;;
55758;SDS011;41678;52.126;20.664;2022-11-14T04:28:56;7.72;;;2.38;;
55758;SDS011;41678;52.126;20.664;2022-11-14T04:34:35;7.90;;;3.00;;
55758;SDS011;41678;52.126;20.664;2022-11-14T04:40:13;8.05;;;3.28;;
55758;SDS011;41678;52.126;20.664;2022-11-14T04:45:52;12.68;;;4.35;;
55758;SDS011;41678;52.126;20.664;2022-11-14T04:51:30;10.40;;;4.32;;
55758;SDS011;41678;52.126;20.664;2022-11-14T04:57:09;9.57;;;3.10;;
55758;SDS011;41678;52.126;20.664;2022-11-14T05:02:47;7.47;;;3.08;;
55758;SDS011;41678;52.126;20.664;2022-11-14T05:08:26;8.70;;;2.70;;
55758;SDS011;41678;52.126;20.664;2022-11-14T05:14:04;8.27;;;3.53;;
55758;SDS011;41678;52.126;20.664;2022-11-14T05:19:43;7.53;;;2.83;;
55758;SDS011;41678;52.126;20.664;2022-11-14T05:25:21;7.65;;;2.92;;
55758;SDS011;41678;52.126;20.664;2022-11-14T05:31:03;8.43;;;2.92;;
55758;SDS011;41678;52.126;20.664;2022-11-14T05:36:43;6.65;;;2.53;;
55758;SDS011;41678;52.126;20.664;2022-11-14T05:42:22;9.80;;;2.75;;
55758;SDS011;41678;52.126;20.664;2022-11-14T05:48:00;8.93;;;3.28;;
55758;SDS011;41678;52.126;20.664;2022-11-14T05:53:38;6.78;;;2.45;;
55758;SDS011;41678;52.126;20.664;2022-11-14T05:59:17;6.10;;;1.95;;
55758;SDS011;41678;52.126;20.664;2022-11-14T06:04:55;4.55;;;1.42;;
55758;SDS011;41678;52.126;20.664;2022-11-14T06:10:34;8.23;;;2.28;;
55758;SDS011;41678;52.126;20.664;2022-11-14T06:16:14;6.07;;;2.30;;
55758;SDS011;41678;52.126;20.664;2022-11-14T06:21:54;5.97;;;2.28;;
55758;SDS011;41678;52.126;20.664;2022-11-14T06:27:32;7.40;;;2.03;;
55758;SDS011;41678;52.126;20.664;2022-11-14T06:33:11;6.10;;;2.53;;
55758;SDS011;41678;52.126;20.664;2022-11-14T06:38:49;6.13;;;2.55;;
55758;SDS011;41678;52.126;20.664;2022-11-14T06:44:27;7.63;;;2.45;;
55758;SDS011;41678;52.126;20.664;2022-11-14T06:50:06;8.15;;;2.85;;
55758;SDS011;41678;52.126;20.664;2022-11-14T06:56:18;7.97;;;3.13;;
55758;SDS011;41678;52.126;20.664;2022-11-14T07:01:52;7.60;;;2.50;;
55758;SDS011;41678;52.126;20.664;2022-11-14T07:07:30;5.18;;;2.20;;
55758;SDS011;41678;52.126;20.664;2022-11-14T07:13:08;5.25;;;1.45;;
55758;SDS011;41678;52.126;20.664;2022-11-14T07:18:48;7.07;;;2.58;;
55758;SDS011;41678;52.126;20.664;2022-11-14T07:24:26;6.20;;;2.28;;
55758;SDS011;41678;52.126;20.664;2022-11-14T07:30:04;8.07;;;2.92;;
55758;SDS011;41678;52.126;20.664;2022-11-14T07:35:43;8.30;;;2.38;;
55758;SDS011;41678;52.126;20.664;2022-11-14T07:41:23;6.93;;;2.70;;
55758;SDS011;41678;52.126;20.664;2022-11-14T07:47:01;8.10;;;2.67;;
55758;SDS011;41678;52.126;20.664;2022-11-14T07:52:41;6.78;;;2.70;;
55758;SDS011;41678;52.126;20.664;2022-11-14T07:58:19;10.07;;;2.92;;
55758;SDS011;41678;52.126;20.664;2022-11-14T08:03:57;10.65;;;3.55;;
55758;SDS011;41678;52.126;20.664;2022-11-14T08:09:36;9.75;;;3.42;;
55758;SDS011;41678;52.126;20.664;2022-11-14T08:15:14;9.40;;;3.40;;
55758;SDS011;41678;52.126;20.664;2022-11-14T08:20:52;5.82;;;2.38;;
55758;SDS011;41678;52.126;20.664;2022-11-14T08:26:34;9.48;;;3.00;;
55758;SDS011;41678;52.126;20.664;2022-11-14T08:32:13;6.50;;;2.00;;
55758;SDS011;41678;52.126;20.664;2022-11-14T08:37:52;5.03;;;1.73;;
55758;SDS011;41678;52.126;20.664;2022-11-14T08:43:30;6.65;;;2.17;;
55758;SDS011;41678;52.126;20.664;2022-11-14T08:49:09;4.30;;;1.65;;
55758;SDS011;41678;52.126;20.664;2022-11-14T08:54:47;7.47;;;2.17;;
55758;SDS011;41678;52.126;20.664;2022-11-14T09:00:26;6.88;;;1.77;;
55758;SDS011;41678;52.126;20.664;2022-11-14T09:06:04;7.93;;;2.45;;
55758;SDS011;41678;52.126;20.664;2022-11-14T09:11:43;7.78;;;2.33;;
55758;SDS011;41678;52.126;20.664;2022-11-14T09:17:21;7.63;;;2.63;;
55758;SDS011;41678;52.126;20.664;2022-11-14T09:23:00;5.82;;;2.13;;
55758;SDS011;41678;52.126;20.664;2022-11-14T09:28:38;6.05;;;2.13;;
55758;SDS011;41678;52.126;20.664;2022-11-14T09:34:17;7.88;;;2.55;;
55758;SDS011;41678;52.126;20.664;2022-11-14T09:39:55;7.25;;;2.28;;
55758;SDS011;41678;52.126;20.664;2022-11-14T09:45:45;16.38;;;2.33;;
55758;SDS011;41678;52.126;20.664;2022-11-14T09:51:35;7.30;;;2.88;;
55758;SDS011;41678;52.126;20.664;2022-11-14T09:57:22;7.22;;;2.95;;
55758;SDS011;41678;52.126;20.664;2022-11-14T10:03:11;8.05;;;2.88;;
55758;SDS011;41678;52.126;20.664;2022-11-14T10:20:53;10.23;;;4.15;;
55758;SDS011;41678;52.126;20.664;2022-11-14T10:26:35;10.95;;;3.95;;
55758;SDS011;41678;52.126;20.664;2022-11-14T10:44:10;15.00;;;5.35;;
55758;SDS011;41678;52.126;20.664;2022-11-14T10:49:54;13.85;;;6.75;;
55758;SDS011;41678;52.126;20.664;2022-11-14T10:55:35;13.45;;;5.80;;
55758;SDS011;41678;52.126;20.664;2022-11-14T11:07:24;16.02;;;5.95;;
55758;SDS011;41678;52.126;20.664;2022-11-14T11:13:32;14.13;;;5.55;;
55758;SDS011;41678;52.126;20.664;2022-11-14T11:19:14;18.45;;;8.32;;
55758;SDS011;41678;52.126;20.664;2022-11-14T11:24:52;15.82;;;6.95;;
55758;SDS011;41678;52.126;20.664;2022-11-14T11:30:30;16.85;;;6.53;;
55758;SDS011;41678;52.126;20.664;2022-11-14T11:36:14;14.60;;;6.93;;
55758;SDS011;41678;52.126;20.664;2022-11-14T11:41:56;15.15;;;7.78;;
55758;SDS011;41678;52.126;20.664;2022-11-14T11:47:39;14.82;;;7.63;;
55758;SDS011;41678;52.126;20.664;2022-11-14T12:05:30;14.20;;;7.25;;
55758;SDS011;41678;52.126;20.664;2022-11-14T12:11:26;18.02;;;8.20;;
55758;SDS011;41678;52.126;20.664;2022-11-14T12:17:30;17.23;;;9.00;;
55758;SDS011;41678;52.126;20.664;2022-11-14T12:34:44;21.20;;;10.80;;
55758;SDS011;41678;52.126;20.664;2022-11-14T12:40:25;21.27;;;10.68;;
55758;SDS011;41678;52.126;20.664;2022-11-14T12:46:16;22.48;;;10.02;;
55758;SDS011;41678;52.126;20.664;2022-11-14T12:51:54;17.25;;;9.15;;
55758;SDS011;41678;52.126;20.664;2022-11-14T12:57:40;25.27;;;9.05;;
55758;SDS011;41678;52.126;20.664;2022-11-14T13:15:31;19.88;;;9.10;;
55758;SDS011;41678;52.126;20.664;2022-11-14T13:21:31;20.50;;;9.65;;
55758;SDS011;41678;52.126;20.664;2022-11-14T13:33:08;25.88;;;11.07;;
55758;SDS011;41678;52.126;20.664;2022-11-14T13:38:54;29.05;;;10.57;;
55758;SDS011;41678;52.126;20.664;2022-11-14T13:50:36;21.15;;;10.07;;
55758;SDS011;41678;52.126;20.664;2022-11-14T14:08:08;23.38;;;9.10;;
55758;SDS011;41678;52.126;20.664;2022-11-14T14:32:04;27.75;;;11.18;;
55758;SDS011;41678;52.126;20.664;2022-11-14T14:37:54;11.55;;;6.40;;
55758;SDS011;41678;52.126;20.664;2022-11-14T14:43:34;32.58;;;12.48;;
55758;SDS011;41678;52.126;20.664;2022-11-14T14:49:16;29.13;;;11.43;;
55758;SDS011;41678;52.126;20.664;2022-11-14T14:54:59;31.55;;;12.40;;
55758;SDS011;41678;52.126;20.664;2022-11-14T15:00:48;28.38;;;10.65;;
55758;SDS011;41678;52.126;20.664;2022-11-14T15:06:38;28.20;;;10.43;;
55758;SDS011;41678;52.126;20.664;2022-11-14T15:12:16;31.90;;;12.93;;
55758;SDS011;41678;52.126;20.664;2022-11-14T15:17:55;25.25;;;10.95;;
55758;SDS011;41678;52.126;20.664;2022-11-14T15:23:37;26.02;;;11.95;;
55758;SDS011;41678;52.126;20.664;2022-11-14T15:29:16;26.38;;;10.48;;
55758;SDS011;41678;52.126;20.664;2022-11-14T15:35:07;26.35;;;10.98;;
55758;SDS011;41678;52.126;20.664;2022-11-14T15:41:09;20.45;;;9.63;;
55758;SDS011;41678;52.126;20.664;2022-11-14T15:46:59;27.20;;;10.30;;
55758;SDS011;41678;52.126;20.664;2022-11-14T15:52:45;29.98;;;11.48;;
55758;SDS011;41678;52.126;20.664;2022-11-14T15:58:26;28.48;;;11.95;;
55758;SDS011;41678;52.126;20.664;2022-11-14T16:04:04;28.65;;;11.32;;
55758;SDS011;41678;52.126;20.664;2022-11-14T16:09:48;37.75;;;11.02;;
55758;SDS011;41678;52.126;20.664;2022-11-14T16:15:27;28.90;;;11.38;;
55758;SDS011;41678;52.126;20.664;2022-11-14T16:21:08;25.70;;;10.88;;
55758;SDS011;41678;52.126;20.664;2022-11-14T16:26:50;31.45;;;11.18;;
55758;SDS011;41678;52.126;20.664;2022-11-14T16:32:32;23.52;;;10.35;;
55758;SDS011;41678;52.126;20.664;2022-11-14T16:38:11;27.50;;;11.55;;
55758;SDS011;41678;52.126;20.664;2022-11-14T16:43:52;36.22;;;11.68;;
55758;SDS011;41678;52.126;20.664;2022-11-14T16:49:31;29.70;;;12.85;;
55758;SDS011;41678;52.126;20.664;2022-11-14T16:55:10;32.65;;;11.90;;
55758;SDS011;41678;52.126;20.664;2022-11-14T17:00:49;24.67;;;10.15;;
55758;SDS011;41678;52.126;20.664;2022-11-14T17:06:27;30.08;;;11.52;;
55758;SDS011;41678;52.126;20.664;2022-11-14T17:12:06;25.00;;;10.70;;
55758;SDS011;41678;52.126;20.664;2022-11-14T17:17:45;18.15;;;8.48;;
55758;SDS011;41678;52.126;20.664;2022-11-14T17:23:27;20.40;;;8.57;;
55758;SDS011;41678;52.126;20.664;2022-11-14T17:29:05;25.25;;;11.48;;
55758;SDS011;41678;52.126;20.664;2022-11-14T17:34:44;21.50;;;10.10;;
55758;SDS011;41678;52.126;20.664;2022-11-14T17:40:22;24.27;;;9.63;;
55758;SDS011;41678;52.126;20.664;2022-11-14T17:46:02;24.85;;;9.98;;
55758;SDS011;41678;52.126;20.664;2022-11-14T17:51:41;23.08;;;9.90;;
55758;SDS011;41678;52.126;20.664;2022-11-14T17:57:19;22.77;;;8.52;;
55758;SDS011;41678;52.126;20.664;2022-11-14T18:02:57;22.05;;;10.23;;
55758;SDS011;41678;52.126;20.664;2022-11-14T18:08:36;28.30;;;11.82;;
55758;SDS011;41678;52.126;20.664;2022-11-14T18:14:15;22.77;;;9.77;;
55758;SDS011;41678;52.126;20.664;2022-11-14T18:19:54;32.75;;;10.25;;
55758;SDS011;41678;52.126;20.664;2022-11-14T18:25:33;24.45;;;8.55;;
55758;SDS011;41678;52.126;20.664;2022-11-14T18:31:11;28.15;;;10.15;;
55758;SDS011;41678;52.126;20.664;2022-11-14T18:36:51;17.27;;;7.65;;
55758;SDS011;41678;52.126;20.664;2022-11-14T18:42:29;21.02;;;7.90;;
55758;SDS011;41678;52.126;20.664;2022-11-14T18:48:08;21.42;;;8.63;;
55758;SDS011;41678;52.126;20.664;2022-11-14T18:53:46;26.33;;;10.45;;
55758;SDS011;41678;52.126;20.664;2022-11-14T18:59:25;24.55;;;9.63;;
55758;SDS011;41678;52.126;20.664;2022-11-14T19:05:04;17.45;;;8.90;;
55758;SDS011;41678;52.126;20.664;2022-11-14T19:10:42;20.02;;;9.18;;
55758;SDS011;41678;52.126;20.664;2022-11-14T19:16:21;26.38;;;9.00;;
55758;SDS011;41678;52.126;20.664;2022-11-14T19:21:59;27.13;;;9.57;;
55758;SDS011;41678;52.126;20.664;2022-11-14T19:27:38;23.80;;;9.50;;
55758;SDS011;41678;52.126;20.664;2022-11-14T19:33:17;29.30;;;9.60;;
55758;SDS011;41678;52.126;20.664;2022-11-14T19:38:55;19.67;;;7.18;;
55758;SDS011;41678;52.126;20.664;2022-11-14T19:44:36;25.48;;;9.25;;
55758;SDS011;41678;52.126;20.664;2022-11-14T19:50:14;24.85;;;9.50;;
55758;SDS011;41678;52.126;20.664;2022-11-14T19:56:03;22.80;;;9.43;;
55758;SDS011;41678;52.126;20.664;2022-11-14T20:01:43;27.40;;;9.93;;
55758;SDS011;41678;52.126;20.664;2022-11-14T20:07:21;20.48;;;9.25;;
55758;SDS011;41678;52.126;20.664;2022-11-14T20:13:00;17.23;;;7.75;;
55758;SDS011;41678;52.126;20.664;2022-11-14T20:18:39;26.33;;;8.73;;
55758;SDS011;41678;52.126;20.664;2022-11-14T20:24:18;19.58;;;9.50;;
55758;SDS011;41678;52.126;20.664;2022-11-14T20:29:59;24.85;;;7.45;;
55758;SDS011;41678;52.126;20.664;2022-11-14T20:35:37;20.83;;;8.25;;
55758;SDS011;41678;52.126;20.664;2022-11-14T20:41:16;18.15;;;8.23;;
55758;SDS011;41678;52.126;20.664;2022-11-14T20:46:56;23.17;;;10.50;;
55758;SDS011;41678;52.126;20.664;2022-11-14T20:52:34;25.38;;;9.50;;
55758;SDS011;41678;52.126;20.664;2022-11-14T20:58:15;26.38;;;10.38;;
55758;SDS011;41678;52.126;20.664;2022-11-14T21:03:53;24.08;;;8.63;;
55758;SDS011;41678;52.126;20.664;2022-11-14T21:09:32;22.00;;;10.68;;
55758;SDS011;41678;52.126;20.664;2022-11-14T21:15:10;23.08;;;10.40;;
55758;SDS011;41678;52.126;20.664;2022-11-14T21:20:56;21.02;;;9.82;;
55758;SDS011;41678;52.126;20.664;2022-11-14T21:26:36;20.83;;;9.63;;
55758;SDS011;41678;52.126;20.664;2022-11-14T21:32:16;28.75;;;10.15;;
55758;SDS011;41678;52.126;20.664;2022-11-14T21:37:55;24.55;;;10.20;;
55758;SDS011;41678;52.126;20.664;2022-11-14T21:43:33;21.42;;;9.68;;
55758;SDS011;41678;52.126;20.664;2022-11-14T21:49:12;22.83;;;9.48;;
55758;SDS011;41678;52.126;20.664;2022-11-14T21:54:51;19.80;;;10.00;;
55758;SDS011;41678;52.126;20.664;2022-11-14T22:00:29;25.63;;;10.73;;
55758;SDS011;41678;52.126;20.664;2022-11-14T22:06:08;23.30;;;11.52;;
55758;SDS011;41678;52.126;20.664;2022-11-14T22:11:46;25.83;;;12.10;;
55758;SDS011;41678;52.126;20.664;2022-11-14T22:17:24;28.08;;;11.48;;
55758;SDS011;41678;52.126;20.664;2022-11-14T22:23:04;39.63;;;13.73;;
55758;SDS011;41678;52.126;20.664;2022-11-14T22:28:43;31.73;;;13.10;;
55758;SDS011;41678;52.126;20.664;2022-11-14T22:34:21;31.50;;;12.57;;
55758;SDS011;41678;52.126;20.664;2022-11-14T22:40:00;32.55;;;14.63;;
55758;SDS011;41678;52.126;20.664;2022-11-14T22:45:39;33.15;;;14.75;;
55758;SDS011;41678;52.126;20.664;2022-11-14T22:51:21;33.60;;;16.00;;
55758;SDS011;41678;52.126;20.664;2022-11-14T22:57:01;33.03;;;16.05;;
55758;SDS011;41678;52.126;20.664;2022-11-14T23:02:40;30.38;;;15.63;;
55758;SDS011;41678;52.126;20.664;2022-11-14T23:08:18;38.70;;;17.17;;
55758;SDS011;41678;52.126;20.664;2022-11-14T23:13:58;41.25;;;17.65;;
55758;SDS011;41678;52.126;20.664;2022-11-14T23:19:37;43.47;;;16.40;;
55758;SDS011;41678;52.126;20.664;2022-11-14T23:25:15;44.13;;;17.38;;
55758;SDS011;41678;52.126;20.664;2022-11-14T23:30:54;38.17;;;16.48;;
55758;SDS011;41678;52.126;20.664;2022-11-14T23:36:34;35.58;;;16.30;;
55758;SDS011;41678;52.126;20.664;2022-11-14T23:42:12;42.95;;;17.17;;
55758;SDS011;41678;52.126;20.664;2022-11-14T23:47:51;40.33;;;16.77;;
55758;SDS011;41678;52.126;20.664;2022-11-14T23:53:29;39.88;;;17.90;;
55758;SDS011;41678;52.126;20.664;2022-11-14T23:59:08;44.53;;;16.77;;
